首页
METAR-TAF:

METAR-TAF

机场 :

拉伯克, 得克萨斯州, 美国

纬度: 33-40-03N, 经度: 101-49-17W, 海拔: 1000米

当前天气观测

该预报发布于1小时和8分钟前的15:53 UTC
风速12节,风向西南,有时为20节阵风
温度 30°C
湿度 46%
气压 1018 hPa
能見度: 16.1公里
少量云层高于18000英尺
少量云层高于25000英尺

METAR: KLBB 241553Z 22012G20KT 10SM FEW180 FEW250 30/17 A3006 RMK AO2 SLP120 T03000172

时间: 12:01 (17:01 UTC)

预报

该预报发布于5小时和41分钟前的11:20 UTC
预报有效从24日的 12点(UTC)到 25日的 12点(UTC)
风速11节,风向南转西南
能見度: 10公里
天空无云
从 24日的 1800点(UTC)
风速11节,风向南转南东
能見度: 10公里
天空无云

TAF: KLBB 241120Z 2412/2512 20011KT P6SM SKC FM241800 16011KT P6SM SKC

超过4000个机场的气象观测和天气预报(METAR&TAF报告)。

可查询的气象台以黄色和红色小点在地图上表示。

将鼠标移到小点上方,可查看气象台名称。

然后点击查看天气观测和预报。

如需切换地图:点击带黑十字的绿色按钮放大地图;点击带横线的绿色按钮缩小地图;或者点击绿色箭头查看邻近地区的地图。


METAR-TAF: